sensor_id;sensor_type;location;lat;lon;timestamp;P1;durP1;ratioP1;P2;durP2;ratioP2
5221;SDS011;2630;52.036;8.514;2023-09-07T00:01:16;83.87;;;6.90;;
5221;SDS011;2630;52.036;8.514;2023-09-07T00:03:41;82.37;;;6.03;;
5221;SDS011;2630;52.036;8.514;2023-09-07T00:06:07;82.67;;;7.20;;
5221;SDS011;2630;52.036;8.514;2023-09-07T00:08:34;73.37;;;5.50;;
5221;SDS011;2630;52.036;8.514;2023-09-07T00:11:03;73.70;;;5.67;;
5221;SDS011;2630;52.036;8.514;2023-09-07T00:13:30;86.27;;;6.90;;
5221;SDS011;2630;52.036;8.514;2023-09-07T00:15:58;77.87;;;6.10;;
5221;SDS011;2630;52.036;8.514;2023-09-07T00:18:25;73.87;;;6.10;;
5221;SDS011;2630;52.036;8.514;2023-09-07T00:20:51;76.00;;;6.30;;
5221;SDS011;2630;52.036;8.514;2023-09-07T00:23:16;79.77;;;6.70;;
5221;SDS011;2630;52.036;8.514;2023-09-07T00:25:42;91.67;;;7.80;;
5221;SDS011;2630;52.036;8.514;2023-09-07T00:28:08;87.73;;;7.10;;
5221;SDS011;2630;52.036;8.514;2023-09-07T00:30:34;74.67;;;5.87;;
5221;SDS011;2630;52.036;8.514;2023-09-07T00:33:00;77.83;;;5.70;;
5221;SDS011;2630;52.036;8.514;2023-09-07T00:35:26;88.40;;;8.03;;
5221;SDS011;2630;52.036;8.514;2023-09-07T00:37:51;86.10;;;7.10;;
5221;SDS011;2630;52.036;8.514;2023-09-07T00:40:17;83.50;;;6.60;;
5221;SDS011;2630;52.036;8.514;2023-09-07T00:42:42;79.03;;;7.00;;
5221;SDS011;2630;52.036;8.514;2023-09-07T00:45:08;82.47;;;6.33;;
5221;SDS011;2630;52.036;8.514;2023-09-07T00:47:34;75.10;;;6.20;;
5221;SDS011;2630;52.036;8.514;2023-09-07T00:50:04;73.57;;;6.23;;
5221;SDS011;2630;52.036;8.514;2023-09-07T00:52:30;73.87;;;5.80;;
5221;SDS011;2630;52.036;8.514;2023-09-07T00:54:57;74.20;;;5.93;;
5221;SDS011;2630;52.036;8.514;2023-09-07T00:57:23;84.83;;;6.33;;
5221;SDS011;2630;52.036;8.514;2023-09-07T00:59:50;78.40;;;6.00;;
5221;SDS011;2630;52.036;8.514;2023-09-07T01:02:15;76.07;;;6.60;;
5221;SDS011;2630;52.036;8.514;2023-09-07T01:04:41;78.53;;;5.87;;
5221;SDS011;2630;52.036;8.514;2023-09-07T01:07:29;77.67;;;5.90;;
5221;SDS011;2630;52.036;8.514;2023-09-07T01:10:00;82.40;;;6.73;;
5221;SDS011;2630;52.036;8.514;2023-09-07T01:12:27;78.70;;;6.33;;
5221;SDS011;2630;52.036;8.514;2023-09-07T01:14:53;82.27;;;6.40;;
5221;SDS011;2630;52.036;8.514;2023-09-07T01:17:19;75.80;;;6.30;;
5221;SDS011;2630;52.036;8.514;2023-09-07T01:19:49;73.47;;;5.93;;
5221;SDS011;2630;52.036;8.514;2023-09-07T01:22:16;85.03;;;7.13;;
5221;SDS011;2630;52.036;8.514;2023-09-07T01:24:43;73.40;;;6.07;;
5221;SDS011;2630;52.036;8.514;2023-09-07T01:27:11;77.07;;;6.17;;
5221;SDS011;2630;52.036;8.514;2023-09-07T01:29:38;84.80;;;6.93;;
5221;SDS011;2630;52.036;8.514;2023-09-07T01:32:04;73.60;;;5.57;;
5221;SDS011;2630;52.036;8.514;2023-09-07T01:34:30;81.53;;;7.17;;
5221;SDS011;2630;52.036;8.514;2023-09-07T01:36:56;77.20;;;5.97;;
5221;SDS011;2630;52.036;8.514;2023-09-07T01:39:22;74.17;;;5.57;;
5221;SDS011;2630;52.036;8.514;2023-09-07T01:41:48;73.30;;;5.37;;
5221;SDS011;2630;52.036;8.514;2023-09-07T01:44:13;79.97;;;6.53;;
5221;SDS011;2630;52.036;8.514;2023-09-07T01:46:39;73.27;;;5.27;;
5221;SDS011;2630;52.036;8.514;2023-09-07T01:49:05;82.33;;;6.70;;
5221;SDS011;2630;52.036;8.514;2023-09-07T01:51:30;80.60;;;6.67;;
5221;SDS011;2630;52.036;8.514;2023-09-07T01:53:56;90.27;;;7.57;;
5221;SDS011;2630;52.036;8.514;2023-09-07T01:56:22;79.67;;;6.00;;
5221;SDS011;2630;52.036;8.514;2023-09-07T01:58:48;73.10;;;5.53;;
5221;SDS011;2630;52.036;8.514;2023-09-07T02:01:30;73.20;;;5.47;;
5221;SDS011;2630;52.036;8.514;2023-09-07T02:03:56;84.43;;;6.90;;
5221;SDS011;2630;52.036;8.514;2023-09-07T02:06:22;78.17;;;6.23;;
5221;SDS011;2630;52.036;8.514;2023-09-07T02:08:48;88.30;;;6.70;;
5221;SDS011;2630;52.036;8.514;2023-09-07T02:11:14;79.53;;;8.17;;
5221;SDS011;2630;52.036;8.514;2023-09-07T02:13:43;78.80;;;6.70;;
5221;SDS011;2630;52.036;8.514;2023-09-07T02:16:10;81.20;;;5.87;;
5221;SDS011;2630;52.036;8.514;2023-09-07T02:18:36;81.40;;;6.20;;
5221;SDS011;2630;52.036;8.514;2023-09-07T02:21:08;81.20;;;6.67;;
5221;SDS011;2630;52.036;8.514;2023-09-07T02:23:34;93.23;;;8.07;;
5221;SDS011;2630;52.036;8.514;2023-09-07T02:26:01;100.17;;;8.60;;
5221;SDS011;2630;52.036;8.514;2023-09-07T02:28:27;78.60;;;6.60;;
5221;SDS011;2630;52.036;8.514;2023-09-07T02:30:53;92.90;;;7.80;;
5221;SDS011;2630;52.036;8.514;2023-09-07T02:33:19;80.30;;;6.17;;
5221;SDS011;2630;52.036;8.514;2023-09-07T02:35:44;79.30;;;6.30;;
5221;SDS011;2630;52.036;8.514;2023-09-07T02:38:10;81.40;;;6.60;;
5221;SDS011;2630;52.036;8.514;2023-09-07T02:40:41;82.97;;;7.00;;
5221;SDS011;2630;52.036;8.514;2023-09-07T02:43:07;77.87;;;6.17;;
5221;SDS011;2630;52.036;8.514;2023-09-07T02:45:34;76.83;;;5.77;;
5221;SDS011;2630;52.036;8.514;2023-09-07T02:47:59;72.97;;;5.67;;
5221;SDS011;2630;52.036;8.514;2023-09-07T02:50:25;73.20;;;5.83;;
5221;SDS011;2630;52.036;8.514;2023-09-07T02:52:51;73.20;;;5.50;;
5221;SDS011;2630;52.036;8.514;2023-09-07T02:55:16;74.63;;;5.23;;
5221;SDS011;2630;52.036;8.514;2023-09-07T02:57:42;73.27;;;5.63;;
5221;SDS011;2630;52.036;8.514;2023-09-07T03:00:08;73.27;;;5.97;;
5221;SDS011;2630;52.036;8.514;2023-09-07T03:02:36;73.93;;;5.70;;
5221;SDS011;2630;52.036;8.514;2023-09-07T03:05:01;73.17;;;5.40;;
5221;SDS011;2630;52.036;8.514;2023-09-07T03:07:33;73.30;;;5.30;;
5221;SDS011;2630;52.036;8.514;2023-09-07T03:09:59;80.83;;;6.47;;
5221;SDS011;2630;52.036;8.514;2023-09-07T03:12:25;73.37;;;5.70;;
5221;SDS011;2630;52.036;8.514;2023-09-07T03:14:50;73.20;;;5.37;;
5221;SDS011;2630;52.036;8.514;2023-09-07T03:17:16;73.20;;;5.37;;
5221;SDS011;2630;52.036;8.514;2023-09-07T03:19:42;84.57;;;6.20;;
5221;SDS011;2630;52.036;8.514;2023-09-07T03:22:08;73.90;;;5.07;;
5221;SDS011;2630;52.036;8.514;2023-09-07T03:24:34;82.20;;;6.70;;
5221;SDS011;2630;52.036;8.514;2023-09-07T03:27:00;75.97;;;5.37;;
5221;SDS011;2630;52.036;8.514;2023-09-07T03:29:26;82.37;;;6.33;;
5221;SDS011;2630;52.036;8.514;2023-09-07T03:31:52;74.77;;;6.27;;
5221;SDS011;2630;52.036;8.514;2023-09-07T03:34:17;87.10;;;6.93;;
5221;SDS011;2630;52.036;8.514;2023-09-07T03:36:44;86.33;;;7.00;;
5221;SDS011;2630;52.036;8.514;2023-09-07T03:39:10;80.20;;;6.70;;
5221;SDS011;2630;52.036;8.514;2023-09-07T03:41:35;86.83;;;7.43;;
5221;SDS011;2630;52.036;8.514;2023-09-07T03:44:01;84.37;;;8.43;;
5221;SDS011;2630;52.036;8.514;2023-09-07T03:46:26;79.17;;;6.60;;
5221;SDS011;2630;52.036;8.514;2023-09-07T03:48:52;77.90;;;6.50;;
5221;SDS011;2630;52.036;8.514;2023-09-07T03:51:18;88.37;;;9.20;;
5221;SDS011;2630;52.036;8.514;2023-09-07T03:53:44;75.60;;;5.80;;
5221;SDS011;2630;52.036;8.514;2023-09-07T03:56:09;82.53;;;6.13;;
5221;SDS011;2630;52.036;8.514;2023-09-07T03:58:35;73.20;;;5.67;;
5221;SDS011;2630;52.036;8.514;2023-09-07T04:01:00;80.43;;;6.47;;
5221;SDS011;2630;52.036;8.514;2023-09-07T04:03:26;80.87;;;6.70;;
5221;SDS011;2630;52.036;8.514;2023-09-07T04:05:51;74.27;;;5.67;;
5221;SDS011;2630;52.036;8.514;2023-09-07T04:08:18;74.27;;;5.53;;
5221;SDS011;2630;52.036;8.514;2023-09-07T04:10:43;73.30;;;5.23;;
5221;SDS011;2630;52.036;8.514;2023-09-07T04:13:09;80.63;;;6.00;;
5221;SDS011;2630;52.036;8.514;2023-09-07T04:15:41;87.60;;;7.37;;
5221;SDS011;2630;52.036;8.514;2023-09-07T04:18:10;79.90;;;5.97;;
5221;SDS011;2630;52.036;8.514;2023-09-07T04:20:37;85.03;;;6.67;;
5221;SDS011;2630;52.036;8.514;2023-09-07T04:23:04;83.60;;;6.50;;
5221;SDS011;2630;52.036;8.514;2023-09-07T04:25:29;74.23;;;5.53;;
5221;SDS011;2630;52.036;8.514;2023-09-07T04:27:57;85.40;;;7.17;;
5221;SDS011;2630;52.036;8.514;2023-09-07T04:30:23;82.30;;;6.20;;
5221;SDS011;2630;52.036;8.514;2023-09-07T04:32:49;73.50;;;5.50;;
5221;SDS011;2630;52.036;8.514;2023-09-07T04:35:14;82.70;;;6.40;;
5221;SDS011;2630;52.036;8.514;2023-09-07T04:37:44;73.47;;;5.43;;
5221;SDS011;2630;52.036;8.514;2023-09-07T04:40:10;87.07;;;6.93;;
5221;SDS011;2630;52.036;8.514;2023-09-07T04:42:36;77.87;;;5.80;;
5221;SDS011;2630;52.036;8.514;2023-09-07T04:45:05;92.23;;;7.10;;
5221;SDS011;2630;52.036;8.514;2023-09-07T04:47:31;75.77;;;5.57;;
5221;SDS011;2630;52.036;8.514;2023-09-07T04:49:57;74.80;;;6.87;;
5221;SDS011;2630;52.036;8.514;2023-09-07T04:52:23;73.97;;;5.40;;
5221;SDS011;2630;52.036;8.514;2023-09-07T04:54:48;77.53;;;5.90;;
5221;SDS011;2630;52.036;8.514;2023-09-07T04:57:18;74.53;;;5.40;;
5221;SDS011;2630;52.036;8.514;2023-09-07T04:59:43;85.40;;;6.10;;
5221;SDS011;2630;52.036;8.514;2023-09-07T05:02:09;73.10;;;5.57;;
5221;SDS011;2630;52.036;8.514;2023-09-07T05:04:36;73.97;;;5.47;;
5221;SDS011;2630;52.036;8.514;2023-09-07T05:07:02;76.10;;;5.30;;
5221;SDS011;2630;52.036;8.514;2023-09-07T05:09:28;77.63;;;6.13;;
5221;SDS011;2630;52.036;8.514;2023-09-07T05:11:54;87.37;;;7.13;;
5221;SDS011;2630;52.036;8.514;2023-09-07T05:14:20;81.73;;;6.20;;
5221;SDS011;2630;52.036;8.514;2023-09-07T05:16:48;84.20;;;6.97;;
5221;SDS011;2630;52.036;8.514;2023-09-07T05:19:14;73.00;;;5.40;;
5221;SDS011;2630;52.036;8.514;2023-09-07T05:21:39;73.40;;;5.67;;
5221;SDS011;2630;52.036;8.514;2023-09-07T05:24:05;103.27;;;7.40;;
5221;SDS011;2630;52.036;8.514;2023-09-07T05:26:31;73.47;;;5.60;;
5221;SDS011;2630;52.036;8.514;2023-09-07T05:28:56;73.17;;;5.73;;
5221;SDS011;2630;52.036;8.514;2023-09-07T05:31:22;97.43;;;18.63;;
5221;SDS011;2630;52.036;8.514;2023-09-07T05:33:47;74.57;;;5.77;;
5221;SDS011;2630;52.036;8.514;2023-09-07T05:36:13;73.77;;;5.80;;
5221;SDS011;2630;52.036;8.514;2023-09-07T05:38:38;73.47;;;5.33;;
5221;SDS011;2630;52.036;8.514;2023-09-07T05:41:04;79.60;;;5.20;;
5221;SDS011;2630;52.036;8.514;2023-09-07T05:43:30;74.13;;;5.63;;
5221;SDS011;2630;52.036;8.514;2023-09-07T05:45:55;76.50;;;5.90;;
5221;SDS011;2630;52.036;8.514;2023-09-07T05:48:21;74.07;;;5.57;;
5221;SDS011;2630;52.036;8.514;2023-09-07T05:50:47;80.13;;;5.90;;
5221;SDS011;2630;52.036;8.514;2023-09-07T05:53:13;75.10;;;5.93;;
5221;SDS011;2630;52.036;8.514;2023-09-07T05:55:39;77.00;;;5.90;;
5221;SDS011;2630;52.036;8.514;2023-09-07T05:58:06;77.80;;;5.97;;
5221;SDS011;2630;52.036;8.514;2023-09-07T06:00:33;73.70;;;5.67;;
5221;SDS011;2630;52.036;8.514;2023-09-07T06:03:04;72.93;;;5.37;;
5221;SDS011;2630;52.036;8.514;2023-09-07T06:05:30;77.27;;;6.07;;
5221;SDS011;2630;52.036;8.514;2023-09-07T06:07:55;82.33;;;7.17;;
5221;SDS011;2630;52.036;8.514;2023-09-07T06:10:21;73.37;;;6.20;;
5221;SDS011;2630;52.036;8.514;2023-09-07T06:12:47;73.13;;;6.30;;
5221;SDS011;2630;52.036;8.514;2023-09-07T06:15:13;98.37;;;9.43;;
5221;SDS011;2630;52.036;8.514;2023-09-07T06:17:39;74.70;;;5.37;;
5221;SDS011;2630;52.036;8.514;2023-09-07T06:20:04;73.13;;;5.63;;
5221;SDS011;2630;52.036;8.514;2023-09-07T06:22:31;73.20;;;5.70;;
5221;SDS011;2630;52.036;8.514;2023-09-07T06:24:56;74.17;;;5.77;;
5221;SDS011;2630;52.036;8.514;2023-09-07T06:27:22;75.07;;;5.77;;
5221;SDS011;2630;52.036;8.514;2023-09-07T06:29:48;73.40;;;5.33;;
5221;SDS011;2630;52.036;8.514;2023-09-07T06:32:14;73.80;;;6.40;;
5221;SDS011;2630;52.036;8.514;2023-09-07T06:34:39;75.70;;;5.70;;
5221;SDS011;2630;52.036;8.514;2023-09-07T06:37:05;73.10;;;6.03;;
5221;SDS011;2630;52.036;8.514;2023-09-07T06:39:30;76.10;;;6.53;;
5221;SDS011;2630;52.036;8.514;2023-09-07T06:41:56;74.80;;;5.90;;
5221;SDS011;2630;52.036;8.514;2023-09-07T06:44:21;74.80;;;5.97;;
5221;SDS011;2630;52.036;8.514;2023-09-07T06:46:47;73.97;;;5.97;;
5221;SDS011;2630;52.036;8.514;2023-09-07T06:49:14;73.07;;;5.67;;
5221;SDS011;2630;52.036;8.514;2023-09-07T06:51:40;79.63;;;5.90;;
5221;SDS011;2630;52.036;8.514;2023-09-07T06:54:05;81.90;;;6.50;;
5221;SDS011;2630;52.036;8.514;2023-09-07T06:56:31;73.30;;;5.40;;
5221;SDS011;2630;52.036;8.514;2023-09-07T06:58:59;77.63;;;5.73;;
5221;SDS011;2630;52.036;8.514;2023-09-07T07:01:25;76.80;;;5.83;;
5221;SDS011;2630;52.036;8.514;2023-09-07T07:03:51;83.70;;;6.10;;
5221;SDS011;2630;52.036;8.514;2023-09-07T07:06:18;76.40;;;5.60;;
5221;SDS011;2630;52.036;8.514;2023-09-07T07:08:44;79.37;;;5.77;;
5221;SDS011;2630;52.036;8.514;2023-09-07T07:11:10;73.70;;;5.57;;
5221;SDS011;2630;52.036;8.514;2023-09-07T07:13:36;74.50;;;5.27;;
5221;SDS011;2630;52.036;8.514;2023-09-07T07:16:02;73.93;;;5.83;;
5221;SDS011;2630;52.036;8.514;2023-09-07T07:18:29;72.90;;;5.13;;
5221;SDS011;2630;52.036;8.514;2023-09-07T07:20:55;80.20;;;6.33;;
5221;SDS011;2630;52.036;8.514;2023-09-07T07:23:21;77.10;;;6.20;;
5221;SDS011;2630;52.036;8.514;2023-09-07T07:25:47;78.87;;;6.30;;
5221;SDS011;2630;52.036;8.514;2023-09-07T07:28:13;73.90;;;5.03;;
5221;SDS011;2630;52.036;8.514;2023-09-07T07:30:39;79.03;;;6.30;;
5221;SDS011;2630;52.036;8.514;2023-09-07T07:33:07;75.93;;;5.80;;
5221;SDS011;2630;52.036;8.514;2023-09-07T07:35:34;75.07;;;6.03;;
5221;SDS011;2630;52.036;8.514;2023-09-07T07:38:00;73.17;;;5.50;;
5221;SDS011;2630;52.036;8.514;2023-09-07T07:40:26;80.90;;;6.40;;
5221;SDS011;2630;52.036;8.514;2023-09-07T07:42:52;75.50;;;6.00;;
5221;SDS011;2630;52.036;8.514;2023-09-07T07:45:18;74.47;;;5.93;;
5221;SDS011;2630;52.036;8.514;2023-09-07T07:47:45;71.97;;;5.27;;
5221;SDS011;2630;52.036;8.514;2023-09-07T07:50:11;77.47;;;5.63;;
5221;SDS011;2630;52.036;8.514;2023-09-07T07:52:37;77.20;;;6.27;;
5221;SDS011;2630;52.036;8.514;2023-09-07T07:55:02;79.90;;;7.13;;
5221;SDS011;2630;52.036;8.514;2023-09-07T07:57:28;74.17;;;6.37;;
5221;SDS011;2630;52.036;8.514;2023-09-07T07:59:55;76.07;;;6.70;;
5221;SDS011;2630;52.036;8.514;2023-09-07T08:02:21;73.07;;;5.63;;
5221;SDS011;2630;52.036;8.514;2023-09-07T08:04:47;73.17;;;6.57;;
5221;SDS011;2630;52.036;8.514;2023-09-07T08:07:13;79.47;;;6.63;;
5221;SDS011;2630;52.036;8.514;2023-09-07T08:09:38;97.83;;;8.53;;
5221;SDS011;2630;52.036;8.514;2023-09-07T08:12:05;74.20;;;6.33;;
5221;SDS011;2630;52.036;8.514;2023-09-07T08:14:31;73.80;;;6.70;;
5221;SDS011;2630;52.036;8.514;2023-09-07T08:16:57;75.20;;;6.50;;
5221;SDS011;2630;52.036;8.514;2023-09-07T08:19:24;73.50;;;6.37;;
5221;SDS011;2630;52.036;8.514;2023-09-07T08:21:49;78.20;;;6.57;;
5221;SDS011;2630;52.036;8.514;2023-09-07T08:24:15;78.50;;;7.30;;
5221;SDS011;2630;52.036;8.514;2023-09-07T08:26:41;80.10;;;6.70;;
5221;SDS011;2630;52.036;8.514;2023-09-07T08:29:08;76.47;;;7.67;;
5221;SDS011;2630;52.036;8.514;2023-09-07T08:31:35;74.43;;;6.30;;
5221;SDS011;2630;52.036;8.514;2023-09-07T08:34:03;73.60;;;6.30;;
5221;SDS011;2630;52.036;8.514;2023-09-07T08:36:30;74.17;;;5.90;;
5221;SDS011;2630;52.036;8.514;2023-09-07T08:39:00;77.50;;;6.60;;
5221;SDS011;2630;52.036;8.514;2023-09-07T08:41:30;73.53;;;6.03;;
5221;SDS011;2630;52.036;8.514;2023-09-07T08:43:57;76.40;;;6.23;;
5221;SDS011;2630;52.036;8.514;2023-09-07T08:46:22;91.50;;;10.83;;
5221;SDS011;2630;52.036;8.514;2023-09-07T08:48:49;78.97;;;6.50;;
5221;SDS011;2630;52.036;8.514;2023-09-07T08:51:16;74.20;;;6.20;;
5221;SDS011;2630;52.036;8.514;2023-09-07T08:53:43;73.47;;;6.70;;
5221;SDS011;2630;52.036;8.514;2023-09-07T08:56:11;74.43;;;7.07;;
5221;SDS011;2630;52.036;8.514;2023-09-07T08:58:38;79.30;;;7.13;;
5221;SDS011;2630;52.036;8.514;2023-09-07T09:01:07;123.30;;;12.70;;
5221;SDS011;2630;52.036;8.514;2023-09-07T09:03:37;86.37;;;6.97;;
5221;SDS011;2630;52.036;8.514;2023-09-07T09:06:03;73.70;;;6.50;;
5221;SDS011;2630;52.036;8.514;2023-09-07T09:08:40;77.20;;;7.20;;
5221;SDS011;2630;52.036;8.514;2023-09-07T09:11:17;94.80;;;9.40;;
5221;SDS011;2630;52.036;8.514;2023-09-07T09:13:44;100.40;;;10.10;;
5221;SDS011;2630;52.036;8.514;2023-09-07T09:16:10;116.50;;;13.57;;
5221;SDS011;2630;52.036;8.514;2023-09-07T09:18:38;110.67;;;12.30;;
5221;SDS011;2630;52.036;8.514;2023-09-07T09:21:04;109.37;;;11.00;;
5221;SDS011;2630;52.036;8.514;2023-09-07T09:23:34;112.77;;;11.23;;
5221;SDS011;2630;52.036;8.514;2023-09-07T09:26:02;107.10;;;11.50;;
5221;SDS011;2630;52.036;8.514;2023-09-07T09:28:32;105.93;;;10.60;;
5221;SDS011;2630;52.036;8.514;2023-09-07T09:30:59;78.23;;;6.93;;
5221;SDS011;2630;52.036;8.514;2023-09-07T09:33:31;74.13;;;7.07;;
5221;SDS011;2630;52.036;8.514;2023-09-07T09:35:58;74.00;;;6.50;;
5221;SDS011;2630;52.036;8.514;2023-09-07T09:38:24;82.43;;;7.50;;
5221;SDS011;2630;52.036;8.514;2023-09-07T09:40:50;80.90;;;7.53;;
5221;SDS011;2630;52.036;8.514;2023-09-07T09:43:17;76.00;;;7.60;;
5221;SDS011;2630;52.036;8.514;2023-09-07T09:45:45;80.13;;;7.47;;
5221;SDS011;2630;52.036;8.514;2023-09-07T09:48:11;75.93;;;6.50;;
5221;SDS011;2630;52.036;8.514;2023-09-07T09:50:39;81.90;;;8.80;;
5221;SDS011;2630;52.036;8.514;2023-09-07T09:53:05;75.30;;;7.43;;
5221;SDS011;2630;52.036;8.514;2023-09-07T09:55:32;77.80;;;7.50;;
5221;SDS011;2630;52.036;8.514;2023-09-07T09:57:58;76.77;;;7.43;;
5221;SDS011;2630;52.036;8.514;2023-09-07T10:00:24;77.80;;;7.50;;
5221;SDS011;2630;52.036;8.514;2023-09-07T10:03:08;113.43;;;12.27;;
5221;SDS011;2630;52.036;8.514;2023-09-07T10:05:36;107.73;;;11.50;;
5221;SDS011;2630;52.036;8.514;2023-09-07T10:08:07;114.17;;;11.70;;
5221;SDS011;2630;52.036;8.514;2023-09-07T10:10:34;73.97;;;6.77;;
5221;SDS011;2630;52.036;8.514;2023-09-07T10:13:01;75.23;;;8.27;;
5221;SDS011;2630;52.036;8.514;2023-09-07T10:15:27;76.90;;;8.13;;
5221;SDS011;2630;52.036;8.514;2023-09-07T10:18:10;73.37;;;6.87;;
5221;SDS011;2630;52.036;8.514;2023-09-07T10:23:41;77.00;;;6.63;;
5221;SDS011;2630;52.036;8.514;2023-09-07T10:26:16;78.13;;;7.13;;
5221;SDS011;2630;52.036;8.514;2023-09-07T10:28:43;84.00;;;8.17;;
5221;SDS011;2630;52.036;8.514;2023-09-07T10:33:42;77.17;;;6.33;;
5221;SDS011;2630;52.036;8.514;2023-09-07T10:36:08;78.10;;;6.70;;
5221;SDS011;2630;52.036;8.514;2023-09-07T10:38:36;78.23;;;7.37;;
5221;SDS011;2630;52.036;8.514;2023-09-07T10:41:04;74.20;;;6.50;;
5221;SDS011;2630;52.036;8.514;2023-09-07T10:43:30;78.30;;;6.70;;
5221;SDS011;2630;52.036;8.514;2023-09-07T10:45:58;74.30;;;7.17;;
5221;SDS011;2630;52.036;8.514;2023-09-07T10:48:25;75.27;;;7.50;;
5221;SDS011;2630;52.036;8.514;2023-09-07T10:50:53;79.23;;;6.43;;
5221;SDS011;2630;52.036;8.514;2023-09-07T10:53:25;77.17;;;6.70;;
5221;SDS011;2630;52.036;8.514;2023-09-07T10:55:56;76.93;;;7.60;;
5221;SDS011;2630;52.036;8.514;2023-09-07T10:58:24;79.13;;;7.20;;
5221;SDS011;2630;52.036;8.514;2023-09-07T11:00:52;85.50;;;9.93;;
5221;SDS011;2630;52.036;8.514;2023-09-07T11:03:18;75.20;;;6.97;;
5221;SDS011;2630;52.036;8.514;2023-09-07T11:05:43;73.90;;;7.23;;
5221;SDS011;2630;52.036;8.514;2023-09-07T11:08:09;75.27;;;6.83;;
5221;SDS011;2630;52.036;8.514;2023-09-07T11:10:36;82.27;;;7.50;;
5221;SDS011;2630;52.036;8.514;2023-09-07T11:13:05;75.63;;;7.30;;
5221;SDS011;2630;52.036;8.514;2023-09-07T11:15:32;76.90;;;7.23;;
5221;SDS011;2630;52.036;8.514;2023-09-07T11:18:03;77.17;;;7.00;;
5221;SDS011;2630;52.036;8.514;2023-09-07T11:20:30;81.70;;;7.50;;
5221;SDS011;2630;52.036;8.514;2023-09-07T11:22:56;78.53;;;7.30;;
5221;SDS011;2630;52.036;8.514;2023-09-07T11:25:22;86.10;;;7.70;;
5221;SDS011;2630;52.036;8.514;2023-09-07T11:27:48;73.67;;;6.80;;
5221;SDS011;2630;52.036;8.514;2023-09-07T11:30:13;80.83;;;7.70;;
5221;SDS011;2630;52.036;8.514;2023-09-07T11:32:39;76.90;;;7.10;;
5221;SDS011;2630;52.036;8.514;2023-09-07T11:35:07;73.90;;;7.20;;
5221;SDS011;2630;52.036;8.514;2023-09-07T11:37:34;83.20;;;7.60;;
5221;SDS011;2630;52.036;8.514;2023-09-07T11:40:00;78.87;;;10.30;;
5221;SDS011;2630;52.036;8.514;2023-09-07T11:42:29;75.77;;;6.20;;
5221;SDS011;2630;52.036;8.514;2023-09-07T11:44:54;74.70;;;7.03;;
5221;SDS011;2630;52.036;8.514;2023-09-07T11:47:20;74.27;;;7.73;;
5221;SDS011;2630;52.036;8.514;2023-09-07T11:49:45;76.03;;;6.90;;
5221;SDS011;2630;52.036;8.514;2023-09-07T11:52:11;75.37;;;7.47;;
5221;SDS011;2630;52.036;8.514;2023-09-07T11:54:37;77.10;;;7.30;;
5221;SDS011;2630;52.036;8.514;2023-09-07T11:57:03;75.33;;;7.43;;
5221;SDS011;2630;52.036;8.514;2023-09-07T11:59:29;94.07;;;9.03;;
5221;SDS011;2630;52.036;8.514;2023-09-07T12:01:55;88.53;;;8.30;;
5221;SDS011;2630;52.036;8.514;2023-09-07T12:04:20;73.70;;;6.33;;
5221;SDS011;2630;52.036;8.514;2023-09-07T12:06:46;77.10;;;7.80;;
5221;SDS011;2630;52.036;8.514;2023-09-07T12:09:11;73.37;;;6.47;;
5221;SDS011;2630;52.036;8.514;2023-09-07T12:11:39;73.70;;;6.73;;
5221;SDS011;2630;52.036;8.514;2023-09-07T12:14:07;76.10;;;6.73;;
5221;SDS011;2630;52.036;8.514;2023-09-07T12:16:33;74.53;;;6.47;;
5221;SDS011;2630;52.036;8.514;2023-09-07T12:18:59;73.80;;;7.00;;
5221;SDS011;2630;52.036;8.514;2023-09-07T12:21:25;80.20;;;7.03;;
5221;SDS011;2630;52.036;8.514;2023-09-07T12:23:50;76.57;;;7.90;;
5221;SDS011;2630;52.036;8.514;2023-09-07T12:26:16;73.90;;;7.40;;
5221;SDS011;2630;52.036;8.514;2023-09-07T12:28:44;73.70;;;6.70;;
5221;SDS011;2630;52.036;8.514;2023-09-07T12:31:10;76.87;;;8.13;;
5221;SDS011;2630;52.036;8.514;2023-09-07T12:33:36;73.90;;;6.73;;
5221;SDS011;2630;52.036;8.514;2023-09-07T12:36:03;73.57;;;7.30;;
5221;SDS011;2630;52.036;8.514;2023-09-07T12:38:28;80.93;;;8.63;;
5221;SDS011;2630;52.036;8.514;2023-09-07T12:40:54;79.77;;;7.43;;
5221;SDS011;2630;52.036;8.514;2023-09-07T12:43:20;75.40;;;7.10;;
5221;SDS011;2630;52.036;8.514;2023-09-07T12:45:46;74.17;;;7.37;;
5221;SDS011;2630;52.036;8.514;2023-09-07T12:48:12;81.33;;;7.50;;
5221;SDS011;2630;52.036;8.514;2023-09-07T12:50:38;84.07;;;9.17;;
5221;SDS011;2630;52.036;8.514;2023-09-07T12:53:05;77.27;;;7.27;;
5221;SDS011;2630;52.036;8.514;2023-09-07T12:55:31;74.57;;;7.00;;
5221;SDS011;2630;52.036;8.514;2023-09-07T12:57:57;89.23;;;7.87;;
5221;SDS011;2630;52.036;8.514;2023-09-07T13:00:24;75.40;;;7.13;;
5221;SDS011;2630;52.036;8.514;2023-09-07T13:02:49;74.70;;;7.07;;
5221;SDS011;2630;52.036;8.514;2023-09-07T13:05:15;77.07;;;7.27;;
5221;SDS011;2630;52.036;8.514;2023-09-07T13:07:41;137.27;;;12.43;;
5221;SDS011;2630;52.036;8.514;2023-09-07T13:10:09;83.30;;;8.03;;
5221;SDS011;2630;52.036;8.514;2023-09-07T13:12:36;106.23;;;9.63;;
5221;SDS011;2630;52.036;8.514;2023-09-07T13:15:02;90.10;;;8.23;;
5221;SDS011;2630;52.036;8.514;2023-09-07T13:17:28;109.63;;;10.47;;
5221;SDS011;2630;52.036;8.514;2023-09-07T13:19:54;110.27;;;11.43;;
5221;SDS011;2630;52.036;8.514;2023-09-07T13:22:20;99.20;;;9.33;;
5221;SDS011;2630;52.036;8.514;2023-09-07T13:24:45;118.00;;;11.10;;
5221;SDS011;2630;52.036;8.514;2023-09-07T13:27:11;91.43;;;8.33;;
5221;SDS011;2630;52.036;8.514;2023-09-07T13:29:37;119.77;;;12.10;;
5221;SDS011;2630;52.036;8.514;2023-09-07T13:32:03;103.20;;;9.40;;
5221;SDS011;2630;52.036;8.514;2023-09-07T13:34:29;105.40;;;10.97;;
5221;SDS011;2630;52.036;8.514;2023-09-07T13:36:55;113.80;;;10.97;;
5221;SDS011;2630;52.036;8.514;2023-09-07T13:39:22;105.20;;;10.50;;
5221;SDS011;2630;52.036;8.514;2023-09-07T13:41:48;100.17;;;9.73;;
5221;SDS011;2630;52.036;8.514;2023-09-07T13:44:15;109.17;;;11.73;;
5221;SDS011;2630;52.036;8.514;2023-09-07T13:46:41;75.67;;;8.17;;
5221;SDS011;2630;52.036;8.514;2023-09-07T13:49:08;101.97;;;10.60;;
5221;SDS011;2630;52.036;8.514;2023-09-07T13:51:34;94.47;;;11.90;;
5221;SDS011;2630;52.036;8.514;2023-09-07T13:54:03;110.40;;;10.50;;
5221;SDS011;2630;52.036;8.514;2023-09-07T13:56:29;108.87;;;11.27;;
5221;SDS011;2630;52.036;8.514;2023-09-07T13:58:55;111.10;;;13.53;;
5221;SDS011;2630;52.036;8.514;2023-09-07T14:01:21;94.70;;;9.23;;
5221;SDS011;2630;52.036;8.514;2023-09-07T14:03:47;102.57;;;10.90;;
5221;SDS011;2630;52.036;8.514;2023-09-07T14:06:13;110.73;;;12.07;;
5221;SDS011;2630;52.036;8.514;2023-09-07T14:08:39;83.50;;;7.60;;
5221;SDS011;2630;52.036;8.514;2023-09-07T14:11:04;105.10;;;11.47;;
5221;SDS011;2630;52.036;8.514;2023-09-07T14:13:31;101.80;;;10.30;;
5221;SDS011;2630;52.036;8.514;2023-09-07T14:15:59;99.73;;;9.80;;
5221;SDS011;2630;52.036;8.514;2023-09-07T14:18:25;97.53;;;10.57;;
5221;SDS011;2630;52.036;8.514;2023-09-07T14:20:51;104.40;;;10.33;;
5221;SDS011;2630;52.036;8.514;2023-09-07T14:23:17;85.57;;;8.90;;
5221;SDS011;2630;52.036;8.514;2023-09-07T14:25:45;104.50;;;11.23;;
5221;SDS011;2630;52.036;8.514;2023-09-07T14:28:12;107.70;;;11.47;;
5221;SDS011;2630;52.036;8.514;2023-09-07T14:30:38;106.77;;;11.07;;
5221;SDS011;2630;52.036;8.514;2023-09-07T14:33:04;111.07;;;11.83;;
5221;SDS011;2630;52.036;8.514;2023-09-07T14:35:31;105.20;;;11.20;;
5221;SDS011;2630;52.036;8.514;2023-09-07T14:37:57;75.07;;;7.50;;
5221;SDS011;2630;52.036;8.514;2023-09-07T14:40:22;113.77;;;11.90;;
5221;SDS011;2630;52.036;8.514;2023-09-07T14:42:49;111.70;;;11.93;;
5221;SDS011;2630;52.036;8.514;2023-09-07T14:45:15;100.20;;;10.97;;
5221;SDS011;2630;52.036;8.514;2023-09-07T14:47:42;107.23;;;11.90;;
5221;SDS011;2630;52.036;8.514;2023-09-07T14:50:08;110.63;;;12.13;;
5221;SDS011;2630;52.036;8.514;2023-09-07T14:52:34;94.17;;;9.00;;
5221;SDS011;2630;52.036;8.514;2023-09-07T14:55:06;108.27;;;10.50;;
5221;SDS011;2630;52.036;8.514;2023-09-07T14:57:33;115.90;;;11.70;;
5221;SDS011;2630;52.036;8.514;2023-09-07T14:59:59;92.33;;;10.03;;